sensor_id;sensor_type;location;lat;lon;timestamp;pressure;altitude;pressure_sealevel;temperature;humidity
6668;BME280;3370;47.712;9.082;2023-04-26T00:02:11;97054.91;;;5.78;100.00
6668;BME280;3370;47.712;9.082;2023-04-26T00:04:38;97046.50;;;5.74;100.00
6668;BME280;3370;47.712;9.082;2023-04-26T00:07:04;97048.44;;;5.66;100.00
6668;BME280;3370;47.712;9.082;2023-04-26T00:09:31;97047.66;;;5.62;100.00
6668;BME280;3370;47.712;9.082;2023-04-26T00:11:56;97051.13;;;5.60;100.00
6668;BME280;3370;47.712;9.082;2023-04-26T00:14:22;97056.72;;;5.74;100.00
6668;BME280;3370;47.712;9.082;2023-04-26T00:16:48;97062.97;;;5.62;100.00
6668;BME280;3370;47.712;9.082;2023-04-26T00:19:14;97065.47;;;5.64;100.00
6668;BME280;3370;47.712;9.082;2023-04-26T00:21:40;97065.47;;;5.64;100.00
6668;BME280;3370;47.712;9.082;2023-04-26T00:24:07;97067.22;;;5.62;100.00
6668;BME280;3370;47.712;9.082;2023-04-26T00:26:32;97069.03;;;5.56;100.00
6668;BME280;3370;47.712;9.082;2023-04-26T00:29:00;97070.00;;;5.52;100.00
6668;BME280;3370;47.712;9.082;2023-04-26T00:31:26;97068.34;;;5.51;100.00
6668;BME280;3370;47.712;9.082;2023-04-26T00:33:52;97070.16;;;5.46;100.00
6668;BME280;3370;47.712;9.082;2023-04-26T00:36:18;97068.34;;;5.51;100.00
6668;BME280;3370;47.712;9.082;2023-04-26T00:38:47;97062.22;;;5.59;100.00
6668;BME280;3370;47.712;9.082;2023-04-26T00:41:13;97061.31;;;5.60;100.00
6668;BME280;3370;47.712;9.082;2023-04-26T00:43:39;97064.75;;;5.59;100.00
6668;BME280;3370;47.712;9.082;2023-04-26T00:46:08;97057.91;;;5.61;100.00
6668;BME280;3370;47.712;9.082;2023-04-26T00:48:36;97071.66;;;5.55;100.00
6668;BME280;3370;47.712;9.082;2023-04-26T00:51:03;97065.09;;;5.45;100.00
6668;BME280;3370;47.712;9.082;2023-04-26T00:53:30;97067.69;;;5.43;100.00
6668;BME280;3370;47.712;9.082;2023-04-26T00:55:57;97065.16;;;5.42;100.00
6668;BME280;3370;47.712;9.082;2023-04-26T00:58:24;97065.78;;;5.51;100.00
6668;BME280;3370;47.712;9.082;2023-04-26T01:00:50;97060.94;;;5.41;100.00
6668;BME280;3370;47.712;9.082;2023-04-26T01:03:16;97059.22;;;5.41;100.00
6668;BME280;3370;47.712;9.082;2023-04-26T01:05:43;97064.28;;;5.43;100.00
6668;BME280;3370;47.712;9.082;2023-04-26T01:08:09;97065.94;;;5.44;100.00
6668;BME280;3370;47.712;9.082;2023-04-26T01:10:35;97068.66;;;5.37;100.00
6668;BME280;3370;47.712;9.082;2023-04-26T01:13:01;97076.34;;;5.36;100.00
6668;BME280;3370;47.712;9.082;2023-04-26T01:15:30;97070.44;;;5.34;100.00
6668;BME280;3370;47.712;9.082;2023-04-26T01:18:00;97077.00;;;5.44;100.00
6668;BME280;3370;47.712;9.082;2023-04-26T01:20:27;97071.94;;;5.43;100.00
6668;BME280;3370;47.712;9.082;2023-04-26T01:22:53;97072.84;;;5.40;100.00
6668;BME280;3370;47.712;9.082;2023-04-26T01:25:19;97078.00;;;5.38;100.00
6668;BME280;3370;47.712;9.082;2023-04-26T01:27:45;97074.59;;;5.38;100.00
6668;BME280;3370;47.712;9.082;2023-04-26T01:30:11;97077.06;;;5.43;100.00
6668;BME280;3370;47.712;9.082;2023-04-26T01:32:37;97073.66;;;5.42;100.00
6668;BME280;3370;47.712;9.082;2023-04-26T01:35:03;97081.25;;;5.44;100.00
6668;BME280;3370;47.712;9.082;2023-04-26T01:37:30;97077.81;;;5.46;100.00
6668;BME280;3370;47.712;9.082;2023-04-26T01:39:55;97080.38;;;5.46;100.00
6668;BME280;3370;47.712;9.082;2023-04-26T01:42:21;97071.81;;;5.47;100.00
6668;BME280;3370;47.712;9.082;2023-04-26T01:44:47;97074.38;;;5.47;100.00
6668;BME280;3370;47.712;9.082;2023-04-26T01:47:13;97069.19;;;5.50;100.00
6668;BME280;3370;47.712;9.082;2023-04-26T01:49:38;97072.66;;;5.49;100.00
6668;BME280;3370;47.712;9.082;2023-04-26T01:52:04;97071.75;;;5.50;100.00
6668;BME280;3370;47.712;9.082;2023-04-26T01:54:30;97067.59;;;5.46;100.00
6668;BME280;3370;47.712;9.082;2023-04-26T01:56:56;97064.16;;;5.47;100.00
6668;BME280;3370;47.712;9.082;2023-04-26T01:59:21;97062.22;;;5.59;100.00
6668;BME280;3370;47.712;9.082;2023-04-26T02:01:47;97061.97;;;5.68;100.00
6668;BME280;3370;47.712;9.082;2023-04-26T02:04:13;97062.34;;;5.52;100.00
6668;BME280;3370;47.712;9.082;2023-04-26T02:06:39;97063.25;;;5.51;100.00
6668;BME280;3370;47.712;9.082;2023-04-26T02:09:07;97060.00;;;5.45;100.00
6668;BME280;3370;47.712;9.082;2023-04-26T02:11:34;97062.63;;;5.40;100.00
6668;BME280;3370;47.712;9.082;2023-04-26T02:14:00;97049.19;;;5.35;100.00
6668;BME280;3370;47.712;9.082;2023-04-26T02:16:26;97051.78;;;5.33;100.00
6668;BME280;3370;47.712;9.082;2023-04-26T02:18:52;97045.91;;;5.30;100.00
6668;BME280;3370;47.712;9.082;2023-04-26T02:21:20;97045.91;;;5.30;100.00
6668;BME280;3370;47.712;9.082;2023-04-26T02:23:46;97035.72;;;5.30;100.00
6668;BME280;3370;47.712;9.082;2023-04-26T02:26:12;97041.59;;;5.32;100.00
6668;BME280;3370;47.712;9.082;2023-04-26T02:28:38;97039.28;;;5.23;100.00
6668;BME280;3370;47.712;9.082;2023-04-26T02:31:04;97039.41;;;5.16;100.00
6668;BME280;3370;47.712;9.082;2023-04-26T02:33:30;97039.63;;;5.07;100.00
6668;BME280;3370;47.712;9.082;2023-04-26T02:35:56;97040.41;;;5.09;100.00
6668;BME280;3370;47.712;9.082;2023-04-26T02:38:23;97039.41;;;5.16;100.00
6668;BME280;3370;47.712;9.082;2023-04-26T02:40:58;97039.63;;;5.07;100.00
6668;BME280;3370;47.712;9.082;2023-04-26T02:43:24;97040.63;;;5.00;100.00
6668;BME280;3370;47.712;9.082;2023-04-26T02:45:50;97039.78;;;5.01;100.00
6668;BME280;3370;47.712;9.082;2023-04-26T02:48:15;97038.09;;;5.00;100.00
6668;BME280;3370;47.712;9.082;2023-04-26T02:50:41;97040.00;;;4.92;100.00
6668;BME280;3370;47.712;9.082;2023-04-26T02:53:07;97035.09;;;4.83;100.00
6668;BME280;3370;47.712;9.082;2023-04-26T02:55:33;97046.13;;;4.83;100.00
6668;BME280;3370;47.712;9.082;2023-04-26T02:57:58;97041.00;;;4.85;100.00
6668;BME280;3370;47.712;9.082;2023-04-26T03:00:24;97050.50;;;4.76;100.00
6668;BME280;3370;47.712;9.082;2023-04-26T03:02:50;97045.53;;;4.72;100.00
6668;BME280;3370;47.712;9.082;2023-04-26T03:05:16;97038.88;;;4.66;100.00
6668;BME280;3370;47.712;9.082;2023-04-26T03:07:42;97041.50;;;4.61;100.00
6668;BME280;3370;47.712;9.082;2023-04-26T03:10:08;97040.72;;;4.58;100.00
6668;BME280;3370;47.712;9.082;2023-04-26T03:12:34;97047.50;;;4.59;100.00
6668;BME280;3370;47.712;9.082;2023-04-26T03:15:00;97044.88;;;4.62;100.00
6668;BME280;3370;47.712;9.082;2023-04-26T03:17:28;97043.84;;;4.71;100.00
6668;BME280;3370;47.712;9.082;2023-04-26T03:19:54;97046.38;;;4.71;100.00
6668;BME280;3370;47.712;9.082;2023-04-26T03:22:20;97045.72;;;4.64;100.00
6668;BME280;3370;47.712;9.082;2023-04-26T03:24:46;97040.72;;;4.58;100.00
6668;BME280;3370;47.712;9.082;2023-04-26T03:27:12;97039.94;;;4.54;100.00
6668;BME280;3370;47.712;9.082;2023-04-26T03:29:38;97045.97;;;4.52;100.00
6668;BME280;3370;47.712;9.082;2023-04-26T03:32:04;97045.72;;;4.64;100.00
6668;BME280;3370;47.712;9.082;2023-04-26T03:34:30;97041.22;;;4.75;100.00
6668;BME280;3370;47.712;9.082;2023-04-26T03:36:56;97046.16;;;4.82;100.00
6668;BME280;3370;47.712;9.082;2023-04-26T03:39:22;97051.38;;;4.77;100.00
6668;BME280;3370;47.712;9.082;2023-04-26T03:41:48;97050.97;;;4.55;100.00
6668;BME280;3370;47.712;9.082;2023-04-26T03:44:14;97049.25;;;4.57;100.00
6668;BME280;3370;47.712;9.082;2023-04-26T03:46:40;97047.56;;;4.56;100.00
6668;BME280;3370;47.712;9.082;2023-04-26T03:49:06;97048.53;;;4.50;100.00
6668;BME280;3370;47.712;9.082;2023-04-26T03:51:32;97053.63;;;4.50;100.00
6668;BME280;3370;47.712;9.082;2023-04-26T03:53:58;97050.97;;;4.55;100.00
6668;BME280;3370;47.712;9.082;2023-04-26T03:56:24;97048.41;;;4.55;100.00
6668;BME280;3370;47.712;9.082;2023-04-26T03:58:50;97047.56;;;4.56;100.00
6668;BME280;3370;47.712;9.082;2023-04-26T04:01:15;97044.06;;;4.60;100.00
6668;BME280;3370;47.712;9.082;2023-04-26T04:03:41;97041.44;;;4.65;100.00
6668;BME280;3370;47.712;9.082;2023-04-26T04:06:07;97042.88;;;4.76;100.00
6668;BME280;3370;47.712;9.082;2023-04-26T04:08:33;97037.69;;;4.81;100.00
6668;BME280;3370;47.712;9.082;2023-04-26T04:10:59;97034.97;;;4.89;100.00
6668;BME280;3370;47.712;9.082;2023-04-26T04:13:26;97041.72;;;4.91;100.00
6668;BME280;3370;47.712;9.082;2023-04-26T04:15:52;97041.75;;;4.90;100.00
6668;BME280;3370;47.712;9.082;2023-04-26T04:18:17;97041.53;;;4.99;100.00
6668;BME280;3370;47.712;9.082;2023-04-26T04:20:44;97033.69;;;5.07;100.00
6668;BME280;3370;47.712;9.082;2023-04-26T04:23:10;97037.97;;;5.06;100.00
6668;BME280;3370;47.712;9.082;2023-04-26T04:25:36;97038.25;;;4.94;100.00
6668;BME280;3370;47.712;9.082;2023-04-26T04:28:02;97039.78;;;5.01;100.00
6668;BME280;3370;47.712;9.082;2023-04-26T04:30:28;97056.81;;;4.99;100.00
6668;BME280;3370;47.712;9.082;2023-04-26T04:32:55;97052.41;;;5.06;100.00
6668;BME280;3370;47.712;9.082;2023-04-26T04:35:23;97046.47;;;5.05;100.00
6668;BME280;3370;47.712;9.082;2023-04-26T04:37:54;97049.91;;;5.04;100.00
6668;BME280;3370;47.712;9.082;2023-04-26T04:40:24;97046.41;;;5.08;100.00
6668;BME280;3370;47.712;9.082;2023-04-26T04:42:50;97044.66;;;5.10;100.00
6668;BME280;3370;47.712;9.082;2023-04-26T04:45:16;97044.59;;;5.13;100.00
6668;BME280;3370;47.712;9.082;2023-04-26T04:47:45;97045.28;;;5.20;100.00
6668;BME280;3370;47.712;9.082;2023-04-26T04:50:11;97048.56;;;5.25;100.00
6668;BME280;3370;47.712;9.082;2023-04-26T04:52:36;97048.50;;;5.28;100.00
6668;BME280;3370;47.712;9.082;2023-04-26T04:55:03;97051.00;;;5.30;100.00
6668;BME280;3370;47.712;9.082;2023-04-26T04:57:29;97051.75;;;5.35;100.00
6668;BME280;3370;47.712;9.082;2023-04-26T04:59:57;97043.22;;;5.34;100.00
6668;BME280;3370;47.712;9.082;2023-04-26T05:02:23;97046.91;;;5.24;100.00
6668;BME280;3370;47.712;9.082;2023-04-26T05:04:49;97045.13;;;5.28;100.00
6668;BME280;3370;47.712;9.082;2023-04-26T05:07:15;97052.06;;;5.21;100.00
6668;BME280;3370;47.712;9.082;2023-04-26T05:09:43;97049.47;;;5.23;100.00
6668;BME280;3370;47.712;9.082;2023-04-26T05:12:08;97048.44;;;5.31;100.00
6668;BME280;3370;47.712;9.082;2023-04-26T05:14:34;97056.16;;;5.27;100.00
6668;BME280;3370;47.712;9.082;2023-04-26T05:17:00;97057.91;;;5.25;100.00
6668;BME280;3370;47.712;9.082;2023-04-26T05:19:26;97053.88;;;5.16;100.00
6668;BME280;3370;47.712;9.082;2023-04-26T05:21:52;97067.31;;;5.23;100.00
6668;BME280;3370;47.712;9.082;2023-04-26T05:24:17;97063.63;;;5.34;100.00
6668;BME280;3370;47.712;9.082;2023-04-26T05:26:43;97068.59;;;5.41;100.00
6668;BME280;3370;47.712;9.082;2023-04-26T05:29:09;97074.69;;;5.35;100.00
6668;BME280;3370;47.712;9.082;2023-04-26T05:31:35;97070.34;;;5.38;100.00
6668;BME280;3370;47.712;9.082;2023-04-26T05:34:01;97070.53;;;5.29;100.00
6668;BME280;3370;47.712;9.082;2023-04-26T05:36:26;97066.09;;;5.39;100.00
6668;BME280;3370;47.712;9.082;2023-04-26T05:38:52;97074.91;;;5.26;100.00
6668;BME280;3370;47.712;9.082;2023-04-26T05:41:18;97077.38;;;5.29;100.00
6668;BME280;3370;47.712;9.082;2023-04-26T05:43:46;97074.53;;;5.41;100.00
6668;BME280;3370;47.712;9.082;2023-04-26T05:46:12;97073.56;;;5.45;100.00
6668;BME280;3370;47.712;9.082;2023-04-26T05:48:37;97070.91;;;5.51;100.00
6668;BME280;3370;47.712;9.082;2023-04-26T05:51:04;97078.31;;;5.61;100.00
6668;BME280;3370;47.712;9.082;2023-04-26T05:53:29;97070.47;;;5.68;100.00
6668;BME280;3370;47.712;9.082;2023-04-26T05:55:55;97081.47;;;5.70;100.00
6668;BME280;3370;47.712;9.082;2023-04-26T05:58:21;97080.63;;;5.70;100.00
6668;BME280;3370;47.712;9.082;2023-04-26T06:00:47;97074.47;;;5.79;100.00
6668;BME280;3370;47.712;9.082;2023-04-26T06:03:12;97079.28;;;5.89;100.00
6668;BME280;3370;47.712;9.082;2023-04-26T06:05:38;97082.53;;;5.94;100.00
6668;BME280;3370;47.712;9.082;2023-04-26T06:08:04;97079.84;;;6.02;100.00
6668;BME280;3370;47.712;9.082;2023-04-26T06:10:30;97083.16;;;6.06;100.00
6668;BME280;3370;47.712;9.082;2023-04-26T06:12:56;97076.94;;;6.14;100.00
6668;BME280;3370;47.712;9.082;2023-04-26T06:15:22;97086.00;;;6.26;100.00
6668;BME280;3370;47.712;9.082;2023-04-26T06:17:47;97083.97;;;6.38;100.00
6668;BME280;3370;47.712;9.082;2023-04-26T06:20:13;97085.22;;;6.54;100.00
6668;BME280;3370;47.712;9.082;2023-04-26T06:22:39;97084.88;;;6.66;100.00
6668;BME280;3370;47.712;9.082;2023-04-26T06:25:06;97074.22;;;6.82;100.00
6668;BME280;3370;47.712;9.082;2023-04-26T06:27:32;97078.13;;;6.94;100.00
6668;BME280;3370;47.712;9.082;2023-04-26T06:29:58;97079.31;;;7.10;100.00
6668;BME280;3370;47.712;9.082;2023-04-26T06:32:24;97093.34;;;7.25;100.00
6668;BME280;3370;47.712;9.082;2023-04-26T06:34:50;97092.97;;;7.37;100.00
6668;BME280;3370;47.712;9.082;2023-04-26T06:37:16;97092.59;;;7.49;100.00
6668;BME280;3370;47.712;9.082;2023-04-26T06:39:41;97099.84;;;7.63;100.00
6668;BME280;3370;47.712;9.082;2023-04-26T06:42:07;97096.03;;;7.75;100.00
6668;BME280;3370;47.712;9.082;2023-04-26T06:44:33;97103.41;;;7.84;100.00
6668;BME280;3370;47.712;9.082;2023-04-26T06:46:59;97096.25;;;7.94;100.00
6668;BME280;3370;47.712;9.082;2023-04-26T06:49:24;97098.47;;;8.05;100.00
6668;BME280;3370;47.712;9.082;2023-04-26T06:51:51;97104.91;;;8.15;100.00
6668;BME280;3370;47.712;9.082;2023-04-26T06:54:18;97105.50;;;8.23;100.00
6668;BME280;3370;47.712;9.082;2023-04-26T06:56:44;97100.00;;;8.34;99.05
6668;BME280;3370;47.712;9.082;2023-04-26T06:59:10;97096.38;;;8.40;97.51
6668;BME280;3370;47.712;9.082;2023-04-26T07:01:36;97092.28;;;8.36;94.99
6668;BME280;3370;47.712;9.082;2023-04-26T07:04:02;97097.97;;;8.19;94.77
6668;BME280;3370;47.712;9.082;2023-04-26T07:06:29;97101.03;;;8.05;95.67
6668;BME280;3370;47.712;9.082;2023-04-26T07:08:59;97096.31;;;8.18;92.73
6668;BME280;3370;47.712;9.082;2023-04-26T07:11:25;97097.66;;;8.03;98.67
6668;BME280;3370;47.712;9.082;2023-04-26T07:13:51;97086.88;;;8.18;94.21
6668;BME280;3370;47.712;9.082;2023-04-26T07:16:17;97090.19;;;7.97;88.81
6668;BME280;3370;47.712;9.082;2023-04-26T07:18:43;97088.56;;;7.94;91.58
6668;BME280;3370;47.712;9.082;2023-04-26T07:21:08;97088.78;;;8.13;93.30
6668;BME280;3370;47.712;9.082;2023-04-26T07:23:34;97086.78;;;8.21;95.06
6668;BME280;3370;47.712;9.082;2023-04-26T07:26:01;97085.34;;;8.14;91.75
6668;BME280;3370;47.712;9.082;2023-04-26T07:28:29;97082.22;;;8.30;90.77
6668;BME280;3370;47.712;9.082;2023-04-26T07:30:55;97086.66;;;8.50;91.95
6668;BME280;3370;47.712;9.082;2023-04-26T07:33:22;97077.38;;;8.71;91.50
6668;BME280;3370;47.712;9.082;2023-04-26T07:35:56;97075.13;;;8.85;88.69
6668;BME280;3370;47.712;9.082;2023-04-26T07:38:23;97076.09;;;8.81;88.67
6668;BME280;3370;47.712;9.082;2023-04-26T07:40:50;97072.78;;;8.55;85.42
6668;BME280;3370;47.712;9.082;2023-04-26T07:43:18;97078.09;;;8.25;89.92
6668;BME280;3370;47.712;9.082;2023-04-26T07:45:43;97090.50;;;8.13;92.04
6668;BME280;3370;47.712;9.082;2023-04-26T07:48:09;97084.66;;;8.09;91.44
6668;BME280;3370;47.712;9.082;2023-04-26T07:50:35;97088.03;;;8.10;90.94
6668;BME280;3370;47.712;9.082;2023-04-26T07:53:01;97080.41;;;8.08;91.42
6668;BME280;3370;47.712;9.082;2023-04-26T07:55:27;97080.91;;;7.94;91.98
6668;BME280;3370;47.712;9.082;2023-04-26T07:57:53;97078.47;;;7.90;92.90
6668;BME280;3370;47.712;9.082;2023-04-26T08:00:19;97080.16;;;7.91;92.89
6668;BME280;3370;47.712;9.082;2023-04-26T08:02:47;97080.78;;;7.97;93.74
6668;BME280;3370;47.712;9.082;2023-04-26T08:05:13;97081.63;;;7.98;90.41
6668;BME280;3370;47.712;9.082;2023-04-26T08:07:40;97072.16;;;8.00;93.95
6668;BME280;3370;47.712;9.082;2023-04-26T08:10:07;97079.81;;;8.01;90.18
6668;BME280;3370;47.712;9.082;2023-04-26T08:12:34;97074.69;;;8.01;92.10
6668;BME280;3370;47.712;9.082;2023-04-26T08:15:00;97075.72;;;7.71;92.33
6668;BME280;3370;47.712;9.082;2023-04-26T08:17:26;97070.81;;;7.90;94.70
6668;BME280;3370;47.712;9.082;2023-04-26T08:19:52;97074.03;;;7.95;95.08
6668;BME280;3370;47.712;9.082;2023-04-26T08:22:18;97076.50;;;7.98;91.46
6668;BME280;3370;47.712;9.082;2023-04-26T08:24:53;97071.84;;;8.09;93.26
6668;BME280;3370;47.712;9.082;2023-04-26T08:27:20;97074.34;;;8.11;90.52
6668;BME280;3370;47.712;9.082;2023-04-26T08:29:46;97078.81;;;8.05;87.90
6668;BME280;3370;47.712;9.082;2023-04-26T08:32:12;97070.63;;;8.19;94.49
6668;BME280;3370;47.712;9.082;2023-04-26T08:34:37;97070.13;;;8.33;89.65
6668;BME280;3370;47.712;9.082;2023-04-26T08:37:05;97070.47;;;8.49;89.33
6668;BME280;3370;47.712;9.082;2023-04-26T08:39:32;97073.34;;;8.63;90.98
6668;BME280;3370;47.712;9.082;2023-04-26T08:42:05;97073.13;;;8.70;90.33
6668;BME280;3370;47.712;9.082;2023-04-26T08:44:35;97072.41;;;8.88;84.78
6668;BME280;3370;47.712;9.082;2023-04-26T08:50:05;97074.94;;;8.90;83.66
6668;BME280;3370;47.712;9.082;2023-04-26T08:52:34;97078.59;;;8.60;81.88
6668;BME280;3370;47.712;9.082;2023-04-26T08:55:01;97076.25;;;8.78;85.00
6668;BME280;3370;47.712;9.082;2023-04-26T08:57:31;97074.38;;;9.05;83.57
6668;BME280;3370;47.712;9.082;2023-04-26T08:59:58;97084.97;;;9.18;82.55
6668;BME280;3370;47.712;9.082;2023-04-26T09:02:24;97077.59;;;9.10;82.91
6668;BME280;3370;47.712;9.082;2023-04-26T09:04:50;97085.81;;;9.18;81.88
6668;BME280;3370;47.712;9.082;2023-04-26T09:07:39;97089.63;;;9.30;79.27
6668;BME280;3370;47.712;9.082;2023-04-26T09:10:05;97079.47;;;9.49;81.39
6668;BME280;3370;47.712;9.082;2023-04-26T09:12:32;97075.31;;;9.47;78.74
6668;BME280;3370;47.712;9.082;2023-04-26T09:14:58;97075.44;;;9.64;78.30
6668;BME280;3370;47.712;9.082;2023-04-26T09:17:30;97078.25;;;9.58;73.93
6668;BME280;3370;47.712;9.082;2023-04-26T09:20:00;97075.78;;;9.34;75.90
6668;BME280;3370;47.712;9.082;2023-04-26T09:22:31;97068.47;;;9.46;76.91
6668;BME280;3370;47.712;9.082;2023-04-26T09:24:58;97068.47;;;9.46;76.08
6668;BME280;3370;47.712;9.082;2023-04-26T09:27:40;97071.72;;;9.51;74.75
6668;BME280;3370;47.712;9.082;2023-04-26T09:30:13;97074.34;;;9.27;77.10
6668;BME280;3370;47.712;9.082;2023-04-26T09:35:31;97066.19;;;9.39;70.94
6668;BME280;3370;47.712;9.082;2023-04-26T09:38:03;97070.94;;;9.49;71.89
6668;BME280;3370;47.712;9.082;2023-04-26T09:40:32;97064.66;;;9.56;69.49
6668;BME280;3370;47.712;9.082;2023-04-26T09:43:10;97058.94;;;9.70;70.51
6668;BME280;3370;47.712;9.082;2023-04-26T09:45:52;97059.66;;;9.73;68.02
6668;BME280;3370;47.712;9.082;2023-04-26T09:48:33;97060.69;;;10.10;73.10
6668;BME280;3370;47.712;9.082;2023-04-26T09:53:30;97059.84;;;10.10;68.82
6668;BME280;3370;47.712;9.082;2023-04-26T09:56:08;97061.44;;;10.33;67.09
6668;BME280;3370;47.712;9.082;2023-04-26T10:01:09;97059.78;;;10.51;64.74
6668;BME280;3370;47.712;9.082;2023-04-26T10:03:36;97053.53;;;10.57;63.52
6668;BME280;3370;47.712;9.082;2023-04-26T10:06:03;97054.69;;;10.70;66.17
6668;BME280;3370;47.712;9.082;2023-04-26T10:08:31;97051.75;;;10.78;64.33
6668;BME280;3370;47.712;9.082;2023-04-26T10:10:58;97047.59;;;10.75;64.06
6668;BME280;3370;47.712;9.082;2023-04-26T10:13:24;97047.38;;;10.61;66.43
6668;BME280;3370;47.712;9.082;2023-04-26T10:15:51;97046.66;;;10.76;65.04
6668;BME280;3370;47.712;9.082;2023-04-26T10:18:18;97049.13;;;10.97;63.06
6668;BME280;3370;47.712;9.082;2023-04-26T10:20:47;97054.22;;;11.17;62.50
6668;BME280;3370;47.712;9.082;2023-04-26T10:23:25;97048.75;;;11.23;65.53
6668;BME280;3370;47.712;9.082;2023-04-26T10:25:53;97046.38;;;11.01;62.43
6668;BME280;3370;47.712;9.082;2023-04-26T10:31:05;97034.06;;;11.08;62.14
6668;BME280;3370;47.712;9.082;2023-04-26T10:33:32;97026.94;;;11.13;61.99
6668;BME280;3370;47.712;9.082;2023-04-26T10:36:12;97027.69;;;11.51;59.98
6668;BME280;3370;47.712;9.082;2023-04-26T10:38:41;97024.09;;;11.72;56.40
6668;BME280;3370;47.712;9.082;2023-04-26T10:41:35;97017.50;;;12.01;54.27
6668;BME280;3370;47.712;9.082;2023-04-26T10:44:46;97019.63;;;11.93;57.10
6668;BME280;3370;47.712;9.082;2023-04-26T10:50:09;97009.31;;;12.10;56.65
6668;BME280;3370;47.712;9.082;2023-04-26T10:55:40;97007.53;;;11.95;53.13
6668;BME280;3370;47.712;9.082;2023-04-26T10:58:30;97010.44;;;12.38;51.32
6668;BME280;3370;47.712;9.082;2023-04-26T11:01:12;97004.97;;;12.11;54.69
6668;BME280;3370;47.712;9.082;2023-04-26T11:04:08;97006.72;;;12.75;54.43
6668;BME280;3370;47.712;9.082;2023-04-26T11:06:54;97002.63;;;13.49;52.06
6668;BME280;3370;47.712;9.082;2023-04-26T11:09:38;96987.19;;;14.35;49.13
6668;BME280;3370;47.712;9.082;2023-04-26T11:12:15;96989.59;;;13.95;44.94
6668;BME280;3370;47.712;9.082;2023-04-26T11:14:42;96981.66;;;14.13;45.57
6668;BME280;3370;47.712;9.082;2023-04-26T11:17:09;96984.06;;;14.16;46.53
6668;BME280;3370;47.712;9.082;2023-04-26T11:19:35;96984.50;;;14.37;44.75
6668;BME280;3370;47.712;9.082;2023-04-26T11:22:04;96981.81;;;14.67;44.74
6668;BME280;3370;47.712;9.082;2023-04-26T11:24:32;96983.88;;;14.05;42.18
6668;BME280;3370;47.712;9.082;2023-04-26T11:27:07;96980.72;;;14.28;44.07
6668;BME280;3370;47.712;9.082;2023-04-26T11:29:33;96984.72;;;14.05;43.91
6668;BME280;3370;47.712;9.082;2023-04-26T11:31:58;96974.97;;;14.66;46.38
6668;BME280;3370;47.712;9.082;2023-04-26T11:34:35;96980.63;;;14.59;43.91
6668;BME280;3370;47.712;9.082;2023-04-26T11:37:05;96969.25;;;14.47;43.29
6668;BME280;3370;47.712;9.082;2023-04-26T11:39:34;96960.38;;;14.92;44.90
6668;BME280;3370;47.712;9.082;2023-04-26T11:42:07;96969.50;;;14.98;43.72
6668;BME280;3370;47.712;9.082;2023-04-26T11:44:34;96969.78;;;14.66;42.91
6668;BME280;3370;47.712;9.082;2023-04-26T11:47:06;96962.88;;;14.94;43.45
6668;BME280;3370;47.712;9.082;2023-04-26T11:49:35;96958.22;;;14.99;44.31
6668;BME280;3370;47.712;9.082;2023-04-26T11:52:03;96968.19;;;15.05;42.29
6668;BME280;3370;47.712;9.082;2023-04-26T11:54:32;96967.19;;;15.21;41.96
6668;BME280;3370;47.712;9.082;2023-04-26T11:56:58;96968.97;;;14.51;41.05
6668;BME280;3370;47.712;9.082;2023-04-26T11:59:29;96966.09;;;14.70;47.71
6668;BME280;3370;47.712;9.082;2023-04-26T12:01:56;96969.34;;;15.01;42.67
6668;BME280;3370;47.712;9.082;2023-04-26T12:04:29;96970.25;;;14.73;41.02
6668;BME280;3370;47.712;9.082;2023-04-26T12:06:56;96965.78;;;15.02;43.36
6668;BME280;3370;47.712;9.082;2023-04-26T12:09:29;96969.28;;;14.88;42.28
6668;BME280;3370;47.712;9.082;2023-04-26T12:12:00;96963.66;;;14.82;44.01
6668;BME280;3370;47.712;9.082;2023-04-26T12:14:37;96976.47;;;14.42;44.86
6668;BME280;3370;47.712;9.082;2023-04-26T12:17:05;96971.03;;;13.74;44.12
6668;BME280;3370;47.712;9.082;2023-04-26T12:19:36;96972.59;;;13.91;45.15
6668;BME280;3370;47.712;9.082;2023-04-26T12:22:04;96977.22;;;14.00;43.70
6668;BME280;3370;47.712;9.082;2023-04-26T12:24:31;96975.91;;;14.51;43.61
6668;BME280;3370;47.712;9.082;2023-04-26T12:27:04;96977.78;;;14.06;42.76
6668;BME280;3370;47.712;9.082;2023-04-26T12:29:31;96975.31;;;13.59;43.21
6668;BME280;3370;47.712;9.082;2023-04-26T12:31:58;96979.78;;;13.72;43.33
6668;BME280;3370;47.712;9.082;2023-04-26T12:34:24;96978.69;;;13.61;44.90
6668;BME280;3370;47.712;9.082;2023-04-26T12:36:50;96974.06;;;13.81;42.76
6668;BME280;3370;47.712;9.082;2023-04-26T12:39:16;96961.72;;;13.86;42.88
6668;BME280;3370;47.712;9.082;2023-04-26T12:41:43;96964.88;;;13.47;42.32
6668;BME280;3370;47.712;9.082;2023-04-26T12:44:11;96963.72;;;13.67;42.28
6668;BME280;3370;47.712;9.082;2023-04-26T12:46:36;96960.25;;;14.11;43.36
6668;BME280;3370;47.712;9.082;2023-04-26T12:49:03;96960.16;;;14.12;42.23
6668;BME280;3370;47.712;9.082;2023-04-26T12:51:29;96961.63;;;13.88;43.37
6668;BME280;3370;47.712;9.082;2023-04-26T12:53:56;96952.75;;;14.21;42.91
6668;BME280;3370;47.712;9.082;2023-04-26T12:56:23;96957.09;;;13.91;42.78
6668;BME280;3370;47.712;9.082;2023-04-26T12:58:49;96945.44;;;14.27;45.05
6668;BME280;3370;47.712;9.082;2023-04-26T13:01:15;96943.28;;;14.63;43.26
6668;BME280;3370;47.712;9.082;2023-04-26T13:03:41;96947.16;;;15.10;43.18
6668;BME280;3370;47.712;9.082;2023-04-26T13:06:07;96937.22;;;15.82;43.06
6668;BME280;3370;47.712;9.082;2023-04-26T13:08:33;96933.06;;;16.05;39.16
6668;BME280;3370;47.712;9.082;2023-04-26T13:10:59;96927.13;;;17.25;41.12
6668;BME280;3370;47.712;9.082;2023-04-26T13:13:25;96927.69;;;16.70;37.70
6668;BME280;3370;47.712;9.082;2023-04-26T13:15:51;96937.00;;;16.61;39.14
6668;BME280;3370;47.712;9.082;2023-04-26T13:18:17;96939.69;;;16.59;40.44
6668;BME280;3370;47.712;9.082;2023-04-26T13:20:44;96940.50;;;15.59;41.21
6668;BME280;3370;47.712;9.082;2023-04-26T13:23:10;96931.28;;;16.06;40.71
6668;BME280;3370;47.712;9.082;2023-04-26T13:25:37;96940.44;;;15.99;38.47
6668;BME280;3370;47.712;9.082;2023-04-26T13:28:03;96939.91;;;15.02;39.17
6668;BME280;3370;47.712;9.082;2023-04-26T13:30:29;96940.59;;;14.64;41.05
6668;BME280;3370;47.712;9.082;2023-04-26T13:32:55;96932.88;;;14.77;40.93
6668;BME280;3370;47.712;9.082;2023-04-26T13:35:22;96926.72;;;15.32;39.19
6668;BME280;3370;47.712;9.082;2023-04-26T13:37:47;96929.22;;;15.60;41.53
6668;BME280;3370;47.712;9.082;2023-04-26T13:40:13;96925.28;;;15.41;40.83
6668;BME280;3370;47.712;9.082;2023-04-26T13:42:40;96913.25;;;15.66;40.42
6668;BME280;3370;47.712;9.082;2023-04-26T13:45:06;96908.94;;;15.92;40.87
6668;BME280;3370;47.712;9.082;2023-04-26T13:47:35;96909.31;;;15.99;39.23